createdAt,value
2017-12-24T00:01:24.036Z,81.22
2017-12-24T00:03:52.720Z,81.61
2017-12-24T00:06:21.405Z,81.00
2017-12-24T00:08:50.045Z,81.75
2017-12-24T00:11:19.491Z,81.28
2017-12-24T00:13:48.227Z,81.80
2017-12-24T00:16:17.685Z,81.44
2017-12-24T00:18:46.371Z,81.09
2017-12-24T00:21:15.253Z,81.26
2017-12-24T00:23:43.950Z,81.21
2017-12-24T00:26:12.566Z,81.58
2017-12-24T00:28:41.421Z,81.58
2017-12-24T00:31:11.080Z,82.03
2017-12-24T00:33:40.537Z,82.30
2017-12-24T00:36:09.265Z,82.14
2017-12-24T00:38:38.721Z,82.03
2017-12-24T00:41:07.351Z,81.33
2017-12-24T00:43:36.816Z,81.14
2017-12-24T00:46:05.503Z,81.44
2017-12-24T00:48:34.175Z,81.01
2017-12-24T00:51:03.022Z,79.91
2017-12-24T00:53:31.663Z,80.23
2017-12-24T00:56:00.246Z,80.48
2017-12-24T00:58:28.974Z,80.86
2017-12-24T01:00:58.432Z,81.45
2017-12-24T01:03:27.016Z,81.69
2017-12-24T01:05:55.896Z,81.90
2017-12-24T01:08:24.541Z,81.65
2017-12-24T01:10:54.000Z,81.23
2017-12-24T01:13:22.990Z,81.63
2017-12-24T01:15:51.622Z,81.54
2017-12-24T01:18:21.074Z,81.33
2017-12-24T01:20:49.870Z,81.59
2017-12-24T01:23:18.446Z,81.62
2017-12-24T01:25:47.032Z,81.72
2017-12-24T01:28:16.086Z,81.91
2017-12-24T01:30:44.810Z,82.65
2017-12-24T01:33:13.448Z,82.44
2017-12-24T01:35:43.411Z,82.91
2017-12-24T01:38:11.997Z,82.22
2017-12-24T01:40:40.684Z,81.54
2017-12-24T01:43:09.742Z,81.47
2017-12-24T01:45:38.461Z,81.15
2017-12-24T01:48:08.758Z,80.56
2017-12-24T01:50:37.571Z,80.89
2017-12-24T01:53:06.264Z,80.09
2017-12-24T01:55:34.840Z,80.45
2017-12-24T01:58:03.738Z,80.87
2017-12-24T02:00:32.320Z,81.37
2017-12-24T02:03:01.007Z,81.79
2017-12-24T02:05:29.793Z,81.95
2017-12-24T02:07:58.477Z,81.79
2017-12-24T02:10:27.063Z,81.17
2017-12-24T02:12:55.803Z,81.56
2017-12-24T02:15:25.296Z,81.16
2017-12-24T02:17:54.756Z,80.75
2017-12-24T02:20:23.606Z,80.07
2017-12-24T02:22:53.050Z,79.23
2017-12-24T02:25:21.640Z,78.71
2017-12-24T02:27:50.684Z,78.50
2017-12-24T02:30:19.379Z,78.94
2017-12-24T02:32:48.107Z,79.12
2017-12-24T02:35:17.134Z,78.93
2017-12-24T02:37:45.877Z,78.78
2017-12-24T02:40:14.569Z,78.58
2017-12-24T02:42:43.364Z,78.72
2017-12-24T02:45:11.947Z,78.76
2017-12-24T02:47:40.597Z,79.15
2017-12-24T02:50:09.468Z,79.71
2017-12-24T02:52:38.925Z,80.07
2017-12-24T02:55:07.611Z,80.95
2017-12-24T02:57:36.448Z,80.68
2017-12-24T03:00:05.913Z,79.78
2017-12-24T03:02:34.578Z,80.32
2017-12-24T03:05:03.424Z,79.17
2017-12-24T03:07:32.883Z,78.79
2017-12-24T03:10:01.460Z,77.88
2017-12-24T03:12:30.257Z,79.20
2017-12-24T03:14:58.891Z,80.03
2017-12-24T03:17:28.341Z,79.68
2017-12-24T03:19:57.223Z,79.41
2017-12-24T03:22:25.920Z,78.78
2017-12-24T03:24:54.606Z,78.20
2017-12-24T03:27:23.599Z,77.46
2017-12-24T03:29:52.998Z,76.53
2017-12-24T03:32:21.785Z,75.77
2017-12-24T03:34:50.776Z,76.00
2017-12-24T03:37:19.364Z,76.09
2017-12-24T03:39:47.950Z,75.86
2017-12-24T03:42:17.088Z,75.95
2017-12-24T03:44:46.551Z,75.98
2017-12-24T03:47:15.237Z,76.20
2017-12-24T03:49:44.022Z,76.02
2017-12-24T03:52:12.659Z,76.24
2017-12-24T03:54:42.106Z,75.47
2017-12-24T03:57:11.104Z,74.65
2017-12-24T03:59:39.785Z,74.36
2017-12-24T04:02:08.471Z,74.20
2017-12-24T04:04:37.266Z,73.77
2017-12-24T04:07:05.912Z,73.59
2017-12-24T04:09:34.638Z,72.96
2017-12-24T04:12:03.619Z,73.10
2017-12-24T04:14:32.320Z,72.53
2017-12-24T04:17:00.936Z,73.13
2017-12-24T04:19:29.625Z,73.37
2017-12-24T04:21:59.088Z,73.31
2017-12-24T04:24:27.714Z,72.40
2017-12-24T04:26:57.375Z,72.72
2017-12-24T04:29:26.068Z,73.32
2017-12-24T04:31:54.753Z,73.87
2017-12-24T04:34:23.340Z,74.25
2017-12-24T04:36:52.025Z,73.95
2017-12-24T04:39:20.601Z,75.40
2017-12-24T04:41:49.333Z,75.78
2017-12-24T04:44:18.797Z,75.29
2017-12-24T04:46:47.422Z,74.45
2017-12-24T04:49:18.012Z,74.50
2017-12-24T04:51:46.682Z,74.66
2017-12-24T04:54:15.377Z,74.55
2017-12-24T04:56:44.118Z,73.84
2017-12-24T04:59:13.468Z,73.45
2017-12-24T05:01:42.056Z,74.09
2017-12-24T05:04:11.049Z,74.60
2017-12-24T05:06:39.735Z,73.07
2017-12-24T05:09:08.356Z,74.10
2017-12-24T05:11:37.820Z,74.65
2017-12-24T05:14:06.466Z,75.57
2017-12-24T05:16:35.191Z,75.02
2017-12-24T05:19:04.952Z,74.67
2017-12-24T05:21:33.693Z,74.77
2017-12-24T05:24:02.378Z,75.91
2017-12-24T05:26:31.150Z,76.03
2017-12-24T05:28:59.751Z,75.92
2017-12-24T05:31:28.428Z,75.85
2017-12-24T05:33:57.320Z,75.31
2017-12-24T05:36:26.004Z,75.65
2017-12-24T05:38:54.690Z,75.16
2017-12-24T05:41:23.536Z,76.36
2017-12-24T05:43:52.994Z,75.51
2017-12-24T05:46:21.681Z,75.58
2017-12-24T05:48:50.366Z,74.99
2017-12-24T05:51:18.942Z,74.90
2017-12-24T05:53:47.628Z,74.29
2017-12-24T05:56:16.314Z,74.93
2017-12-24T05:58:44.902Z,75.32
2017-12-24T06:01:13.578Z,75.31
2017-12-24T06:03:42.275Z,75.45
2017-12-24T06:06:10.960Z,75.80
2017-12-24T06:08:39.584Z,75.83
2017-12-24T06:11:09.142Z,76.07
2017-12-24T06:13:37.839Z,76.87
2017-12-24T06:16:06.525Z,76.37
2017-12-24T06:18:35.251Z,76.28
2017-12-24T06:21:04.670Z,76.35
2017-12-24T06:23:33.395Z,76.08
2017-12-24T06:26:02.080Z,76.09
2017-12-24T06:28:30.767Z,76.45
2017-12-24T06:30:59.415Z,75.68
2017-12-24T06:33:28.408Z,75.75
2017-12-24T06:35:57.131Z,76.19
2017-12-24T06:38:25.818Z,76.07
2017-12-24T06:40:54.761Z,76.46
2017-12-24T06:43:24.221Z,76.71
2017-12-24T06:45:52.914Z,77.34
2017-12-24T06:48:21.664Z,76.98
2017-12-24T06:50:50.378Z,76.50
2017-12-24T06:53:19.062Z,76.61
2017-12-24T06:55:47.749Z,76.52
2017-12-24T06:58:16.384Z,76.58
2017-12-24T07:00:45.874Z,75.96
2017-12-24T07:03:14.527Z,75.76
2017-12-24T07:05:43.206Z,75.41
2017-12-24T07:08:13.023Z,75.13
2017-12-24T07:10:41.808Z,74.42
2017-12-24T07:13:10.641Z,74.19
2017-12-24T07:15:40.106Z,73.61
2017-12-24T07:18:08.776Z,73.60
2017-12-24T07:20:37.369Z,73.93
2017-12-24T07:23:06.054Z,71.50
2017-12-24T07:25:34.681Z,72.02
2017-12-24T07:28:04.141Z,72.34
2017-12-24T07:30:32.924Z,72.63
2017-12-24T07:33:01.610Z,71.17
2017-12-24T07:35:30.250Z,69.04
2017-12-24T07:37:59.868Z,66.90
2017-12-24T07:40:28.589Z,66.58
2017-12-24T07:42:57.229Z,68.34
2017-12-24T07:45:26.847Z,68.18
2017-12-24T07:47:55.469Z,66.37
2017-12-24T07:50:24.066Z,68.61
2017-12-24T07:52:52.940Z,67.03
2017-12-24T07:55:21.528Z,66.18
2017-12-24T07:57:50.213Z,66.04
2017-12-24T08:00:19.207Z,66.62
2017-12-24T08:02:47.850Z,68.51
2017-12-24T08:05:16.578Z,68.51
2017-12-24T08:07:45.289Z,68.15
2017-12-24T08:10:14.048Z,69.44
2017-12-24T08:12:42.734Z,68.32
2017-12-24T08:15:11.685Z,67.82
2017-12-24T08:17:40.314Z,67.18
2017-12-24T08:20:08.901Z,67.68
2017-12-24T08:22:37.576Z,69.06
2017-12-24T08:25:06.254Z,69.06
2017-12-24T08:27:34.896Z,69.64
2017-12-24T08:30:04.972Z,70.44
2017-12-24T08:32:33.610Z,69.15
2017-12-24T08:35:03.057Z,70.13
2017-12-24T08:37:31.843Z,70.02
2017-12-24T08:40:00.539Z,69.48
2017-12-24T08:42:29.233Z,69.54
2017-12-24T08:44:58.009Z,68.26
2017-12-24T08:47:26.547Z,71.23
2017-12-24T08:49:55.995Z,70.40
2017-12-24T08:52:24.779Z,69.88
2017-12-24T08:54:53.422Z,70.04
2017-12-24T08:57:22.151Z,69.51
2017-12-24T08:59:50.946Z,68.18
2017-12-24T09:02:19.632Z,66.36
2017-12-24T09:04:48.319Z,65.16
2017-12-24T09:07:17.166Z,64.22
2017-12-24T09:09:45.852Z,64.89
2017-12-24T09:12:14.520Z,62.37
2017-12-24T09:14:43.984Z,64.18
2017-12-24T09:17:12.652Z,62.87
2017-12-24T09:19:41.295Z,62.23
2017-12-24T09:22:11.019Z,61.25
2017-12-24T09:24:39.943Z,61.01
2017-12-24T09:27:08.641Z,60.86
2017-12-24T09:29:37.494Z,60.28
2017-12-24T09:32:06.216Z,61.59
2017-12-24T09:34:34.855Z,61.59
2017-12-24T09:37:03.692Z,61.78
2017-12-24T09:39:32.362Z,61.91
2017-12-24T09:42:01.005Z,61.61
2017-12-24T09:44:30.476Z,61.17
2017-12-24T09:46:59.038Z,62.68
2017-12-24T09:49:27.731Z,62.40
2017-12-24T09:51:56.828Z,62.10
2017-12-24T09:54:25.615Z,61.43
2017-12-24T09:56:54.233Z,62.73
2017-12-24T09:59:23.707Z,60.76
2017-12-24T10:01:52.394Z,60.48
2017-12-24T10:04:20.968Z,60.97
2017-12-24T10:06:49.765Z,60.51
2017-12-24T10:09:18.550Z,61.27
2017-12-24T10:11:47.104Z,59.67
2017-12-24T10:14:16.020Z,60.95
2017-12-24T10:16:44.657Z,61.24
2017-12-24T10:19:14.115Z,61.18
2017-12-24T10:21:43.267Z,60.77
2017-12-24T10:24:11.993Z,60.67
2017-12-24T10:26:40.627Z,60.15
2017-12-24T10:29:10.146Z,61.51
2017-12-24T10:31:38.873Z,59.90
2017-12-24T10:34:07.559Z,58.61
2017-12-24T10:36:36.343Z,58.26
2017-12-24T10:39:05.028Z,58.99
2017-12-24T10:41:33.659Z,58.93
2017-12-24T10:44:03.277Z,58.07
2017-12-24T10:46:32.769Z,58.62
2017-12-24T10:49:02.188Z,58.25
2017-12-24T10:51:30.916Z,58.63
2017-12-24T10:53:59.548Z,59.95
2017-12-24T10:56:29.018Z,59.47
2017-12-24T10:58:57.859Z,58.64
2017-12-24T11:01:26.580Z,59.63
2017-12-24T11:03:55.311Z,59.04
2017-12-24T11:06:24.872Z,58.73
2017-12-24T11:08:53.608Z,58.32
2017-12-24T11:11:22.355Z,58.45
2017-12-24T11:13:51.140Z,58.36
2017-12-24T11:16:19.826Z,58.12
2017-12-24T11:18:48.405Z,58.34
2017-12-24T11:21:17.089Z,57.92
2017-12-24T11:23:45.732Z,59.10
2017-12-24T11:26:15.183Z,58.89
2017-12-24T11:28:43.968Z,58.81
2017-12-24T11:31:12.614Z,58.47
2017-12-24T11:33:41.165Z,58.37
2017-12-24T11:36:09.874Z,57.96
2017-12-24T11:38:39.326Z,58.70
2017-12-24T11:41:08.011Z,58.39
2017-12-24T11:43:36.696Z,58.44
2017-12-24T11:46:05.345Z,59.63
2017-12-24T11:48:34.058Z,59.60
2017-12-24T11:51:03.219Z,58.65
2017-12-24T11:53:31.947Z,59.70
2017-12-24T11:56:00.569Z,60.23
2017-12-24T11:58:30.108Z,58.74
2017-12-24T12:00:58.716Z,58.47
2017-12-24T12:03:27.260Z,59.27
2017-12-24T12:05:56.297Z,59.95
2017-12-24T12:08:24.983Z,60.33
2017-12-24T12:10:53.648Z,59.50
2017-12-24T12:13:22.715Z,59.20
2017-12-24T12:15:51.446Z,59.49
2017-12-24T12:18:20.077Z,60.02
2017-12-24T12:20:49.694Z,61.43
2017-12-24T12:23:18.425Z,62.87
2017-12-24T12:25:47.015Z,63.44
2017-12-24T12:28:16.110Z,63.09
2017-12-24T12:30:44.657Z,62.92
2017-12-24T12:33:13.269Z,63.69
2017-12-24T12:35:42.227Z,64.88
2017-12-24T12:38:11.670Z,65.05
2017-12-24T12:40:40.356Z,64.82
2017-12-24T12:43:09.141Z,64.29
2017-12-24T12:45:37.825Z,63.41
2017-12-24T12:48:06.512Z,63.03
2017-12-24T12:50:35.205Z,62.15
2017-12-24T12:53:03.897Z,61.93
2017-12-24T12:55:35.180Z,61.50
2017-12-24T12:58:04.910Z,61.45
2017-12-24T13:00:33.627Z,61.49
2017-12-24T13:03:02.272Z,60.88
2017-12-24T13:05:30.999Z,61.04
2017-12-24T13:07:59.633Z,60.91
2017-12-24T13:10:29.094Z,60.61
2017-12-24T13:12:57.978Z,61.48
2017-12-24T13:15:26.611Z,61.30
2017-12-24T13:17:56.025Z,61.82
2017-12-24T13:20:25.825Z,62.18
2017-12-24T13:22:55.234Z,61.61
2017-12-24T13:25:24.683Z,62.14
2017-12-24T13:27:53.779Z,62.68
2017-12-24T13:30:23.387Z,63.02
2017-12-24T13:32:51.973Z,63.62
2017-12-24T13:35:20.659Z,63.99
2017-12-24T13:37:49.345Z,64.56
2017-12-24T13:40:17.987Z,64.18
2017-12-24T13:42:47.028Z,64.60
2017-12-24T13:45:15.605Z,65.74
2017-12-24T13:47:44.156Z,67.05
2017-12-24T13:50:13.133Z,66.89
2017-12-24T13:52:42.590Z,67.19
2017-12-24T13:55:11.279Z,68.03
2017-12-24T13:57:40.012Z,68.18
2017-12-24T14:00:09.429Z,67.73
2017-12-24T14:02:38.097Z,67.34
2017-12-24T14:05:08.015Z,67.73
2017-12-24T14:07:36.747Z,68.33
2017-12-24T14:10:05.447Z,67.86
2017-12-24T14:12:34.325Z,67.48
2017-12-24T14:15:02.912Z,67.18
2017-12-24T14:17:31.598Z,67.98
2017-12-24T14:20:00.383Z,67.84
2017-12-24T14:22:29.070Z,67.59
2017-12-24T14:24:57.706Z,67.85
2017-12-24T14:27:27.299Z,67.89
2017-12-24T14:29:56.761Z,68.67
2017-12-24T14:32:25.409Z,69.21
2017-12-24T14:34:54.133Z,69.27
2017-12-24T14:37:22.818Z,69.33
2017-12-24T14:39:51.504Z,69.89
2017-12-24T14:42:20.096Z,70.15
2017-12-24T14:44:48.776Z,70.80
2017-12-24T14:47:17.416Z,70.60
2017-12-24T14:49:47.332Z,70.28
2017-12-24T14:52:16.776Z,70.38
2017-12-24T14:54:45.419Z,70.42
2017-12-24T14:57:14.152Z,70.43
2017-12-24T14:59:42.779Z,70.70
2017-12-24T15:02:12.243Z,70.52
2017-12-24T15:04:41.030Z,70.28
2017-12-24T15:07:16.209Z,70.86
2017-12-24T15:09:45.773Z,71.05
2017-12-24T15:12:14.447Z,71.34
2017-12-24T15:14:43.145Z,71.21
2017-12-24T15:17:11.878Z,71.81
2017-12-24T15:19:41.338Z,71.89
2017-12-24T15:22:09.960Z,72.44
2017-12-24T15:24:39.431Z,72.14
2017-12-24T15:27:07.993Z,71.72
2017-12-24T15:29:36.688Z,71.88
2017-12-24T15:32:08.354Z,72.53
2017-12-24T15:34:37.052Z,72.39
2017-12-24T15:37:05.826Z,72.51
2017-12-24T15:39:34.459Z,72.89
2017-12-24T15:42:03.912Z,72.56
2017-12-24T15:44:32.695Z,72.79
2017-12-24T15:47:01.282Z,73.18
2017-12-24T15:49:29.958Z,73.05
2017-12-24T15:51:58.863Z,73.51
2017-12-24T15:54:27.490Z,73.73
2017-12-24T15:56:56.947Z,73.84
2017-12-24T15:59:25.680Z,73.82
2017-12-24T16:01:55.142Z,73.54
2017-12-24T16:04:23.716Z,73.31
2017-12-24T16:06:52.406Z,74.08
2017-12-24T16:09:21.089Z,74.97
2017-12-24T16:11:49.775Z,75.66
2017-12-24T16:14:18.570Z,76.03
2017-12-24T16:16:47.251Z,76.22
2017-12-24T16:19:15.942Z,76.28
2017-12-24T16:21:44.567Z,75.82
2017-12-24T16:24:13.981Z,75.77
2017-12-24T16:26:43.471Z,75.82
2017-12-24T16:29:12.941Z,76.24
2017-12-24T16:31:41.780Z,76.42
2017-12-24T16:34:11.229Z,76.40
2017-12-24T16:36:40.170Z,76.22
2017-12-24T16:39:09.620Z,75.98
2017-12-24T16:41:38.306Z,76.13
2017-12-24T16:44:07.101Z,76.30
2017-12-24T16:46:35.634Z,76.14
2017-12-24T16:49:04.363Z,76.13
2017-12-24T16:51:33.147Z,76.34
2017-12-24T16:54:01.846Z,76.83
2017-12-24T16:56:30.483Z,76.86
2017-12-24T16:59:00.178Z,76.75
2017-12-24T17:01:29.597Z,76.78
2017-12-24T17:03:58.433Z,75.98
2017-12-24T17:06:27.282Z,75.53
2017-12-24T17:08:56.001Z,74.79
2017-12-24T17:11:24.687Z,74.40
2017-12-24T17:13:53.288Z,74.57
2017-12-24T17:16:21.978Z,74.96
2017-12-24T17:18:50.694Z,75.51
2017-12-24T17:21:20.559Z,75.93
2017-12-24T17:23:49.190Z,76.26
2017-12-24T17:26:17.932Z,77.35
2017-12-24T17:28:46.925Z,77.30
2017-12-24T17:31:15.616Z,77.06
2017-12-24T17:33:44.297Z,77.26
2017-12-24T17:36:13.181Z,76.71
2017-12-24T17:38:41.876Z,76.84
2017-12-24T17:41:10.453Z,77.07
2017-12-24T17:43:39.397Z,77.11
2017-12-24T17:46:08.133Z,77.07
2017-12-24T17:48:36.783Z,77.44
2017-12-24T17:51:05.507Z,77.59
2017-12-24T17:53:34.168Z,77.85
2017-12-24T17:56:02.835Z,77.55
2017-12-24T17:58:31.869Z,77.20
2017-12-24T18:01:00.553Z,77.70
2017-12-24T18:03:29.189Z,77.05
2017-12-24T18:05:58.641Z,76.53
2017-12-24T18:08:27.335Z,76.08
2017-12-24T18:10:55.912Z,76.37
2017-12-24T18:13:24.760Z,76.32
2017-12-24T18:15:54.203Z,76.08
2017-12-24T18:18:22.899Z,76.28
2017-12-24T18:20:51.738Z,76.45
2017-12-24T18:23:21.185Z,76.53
2017-12-24T18:25:49.823Z,76.94
2017-12-24T18:28:18.818Z,76.89
2017-12-24T18:30:47.548Z,76.92
2017-12-24T18:33:16.134Z,77.18
2017-12-24T18:35:46.019Z,77.49
2017-12-24T18:38:14.566Z,77.60
2017-12-24T18:40:43.323Z,77.90
2017-12-24T18:43:12.048Z,77.79
2017-12-24T18:45:41.510Z,77.45
2017-12-24T18:48:10.158Z,77.66
2017-12-24T18:50:39.150Z,77.94
2017-12-24T18:53:07.873Z,77.64
2017-12-24T18:55:36.511Z,78.44
2017-12-24T18:58:06.452Z,78.15
2017-12-24T19:00:35.158Z,78.02
2017-12-24T19:03:03.790Z,78.28
2017-12-24T19:05:33.332Z,78.00
2017-12-24T19:08:02.040Z,76.96
2017-12-24T19:10:30.732Z,76.85
2017-12-24T19:12:59.660Z,77.27
2017-12-24T19:15:29.116Z,76.94
2017-12-24T19:17:57.705Z,77.14
2017-12-24T19:20:26.438Z,77.13
2017-12-24T19:22:55.900Z,77.20
2017-12-24T19:25:27.142Z,77.54
2017-12-24T19:27:55.731Z,77.50
2017-12-24T19:30:24.303Z,78.31
2017-12-24T19:32:53.100Z,78.37
2017-12-24T19:35:21.741Z,77.72
2017-12-24T19:37:50.470Z,78.03
2017-12-24T19:40:19.205Z,77.87
2017-12-24T19:42:48.657Z,78.67
2017-12-24T19:45:17.339Z,79.21
2017-12-24T19:47:46.031Z,80.70
2017-12-24T19:50:14.676Z,82.20
2017-12-24T19:52:43.397Z,82.22
2017-12-24T19:55:13.059Z,83.30
2017-12-24T19:57:42.415Z,82.72
2017-12-24T20:00:11.095Z,82.69
2017-12-24T20:02:39.944Z,82.10
2017-12-24T20:05:08.672Z,82.71
2017-12-24T20:07:37.301Z,83.79
2017-12-24T20:10:06.963Z,84.36
2017-12-24T20:12:35.649Z,85.29
2017-12-24T20:15:04.333Z,86.20
2017-12-24T20:17:33.473Z,86.00
2017-12-24T20:20:02.837Z,85.04
2017-12-24T20:22:31.423Z,81.49
2017-12-24T20:25:00.109Z,84.29
2017-12-24T20:27:29.662Z,87.26
2017-12-24T20:29:58.362Z,87.93
2017-12-24T20:32:27.079Z,87.97
2017-12-24T20:34:56.540Z,88.61
2017-12-24T20:37:25.162Z,89.41
2017-12-24T20:39:54.682Z,89.81
2017-12-24T20:42:23.410Z,88.92
2017-12-24T20:44:52.046Z,89.41
2017-12-24T20:47:21.088Z,90.84
2017-12-24T20:49:49.677Z,92.26
2017-12-24T20:52:18.224Z,91.89
2017-12-24T20:54:47.146Z,88.06
2017-12-24T20:57:15.782Z,80.78
2017-12-24T20:59:45.242Z,89.89
2017-12-24T21:02:13.916Z,90.25
2017-12-24T21:04:42.607Z,90.56
2017-12-24T21:07:11.253Z,90.14
2017-12-24T21:09:40.022Z,90.68
2017-12-24T21:12:09.439Z,90.54
2017-12-24T21:14:38.169Z,91.21
2017-12-24T21:17:07.064Z,91.95
2017-12-24T21:19:35.645Z,92.56
2017-12-24T21:22:04.196Z,92.68
2017-12-24T21:24:33.177Z,89.12
2017-12-24T21:27:01.905Z,89.08
2017-12-24T21:29:30.491Z,90.72
2017-12-24T21:31:59.486Z,91.76
2017-12-24T21:34:28.124Z,91.85
2017-12-24T21:36:57.570Z,90.68
2017-12-24T21:39:26.305Z,89.25
2017-12-24T21:41:55.765Z,88.91
2017-12-24T21:44:24.451Z,88.39
2017-12-24T21:46:53.234Z,87.65
2017-12-24T21:49:21.920Z,86.90
2017-12-24T21:51:50.607Z,86.49
2017-12-24T21:54:19.614Z,86.07
2017-12-24T21:56:48.330Z,86.38
2017-12-24T21:59:17.795Z,87.59
2017-12-24T22:01:46.579Z,87.22
2017-12-24T22:04:15.265Z,88.85
2017-12-24T22:06:44.872Z,85.06
2017-12-24T22:09:14.022Z,85.52
2017-12-24T22:11:43.376Z,86.71
2017-12-24T22:14:11.961Z,87.88
2017-12-24T22:16:40.801Z,88.71
2017-12-24T22:19:09.838Z,88.52
2017-12-24T22:21:38.526Z,89.01
2017-12-24T22:24:07.627Z,88.60
2017-12-24T22:26:36.311Z,88.79
2017-12-24T22:29:04.999Z,88.30
2017-12-24T22:31:33.682Z,88.63
2017-12-24T22:34:02.369Z,89.33
2017-12-24T22:36:31.055Z,90.10
2017-12-24T22:38:59.786Z,90.57
2017-12-24T22:41:29.095Z,90.48
2017-12-24T22:43:58.539Z,92.42
2017-12-24T22:46:27.714Z,90.43
2017-12-24T22:48:56.382Z,90.39
2017-12-24T22:51:25.825Z,90.66
2017-12-24T22:53:55.027Z,90.32
2017-12-24T22:56:23.661Z,86.97
2017-12-24T22:58:53.079Z,89.33
2017-12-24T23:01:21.798Z,90.83
2017-12-24T23:03:50.483Z,91.69
2017-12-24T23:06:19.131Z,92.88
2017-12-24T23:08:47.855Z,92.80
2017-12-24T23:11:16.540Z,89.06
2017-12-24T23:13:45.227Z,89.80
2017-12-24T23:16:14.022Z,88.67
2017-12-24T23:18:42.708Z,87.44
2017-12-24T23:21:11.437Z,87.54
2017-12-24T23:23:41.155Z,89.10
2017-12-24T23:26:09.848Z,90.21
2017-12-24T23:28:38.571Z,92.87
2017-12-24T23:31:07.255Z,93.04
2017-12-24T23:33:35.942Z,92.15
2017-12-24T23:36:04.529Z,92.48
2017-12-24T23:38:33.314Z,92.53
2017-12-24T23:41:02.005Z,92.72
2017-12-24T23:43:30.686Z,93.00
2017-12-24T23:45:59.679Z,91.87
2017-12-24T23:48:28.283Z,91.85
2017-12-24T23:50:56.951Z,92.46
2017-12-24T23:53:25.947Z,93.01
2017-12-24T23:55:55.360Z,92.61
2017-12-24T23:58:24.031Z,92.70
